sensor_id;sensor_type;location;lat;lon;timestamp;P1;durP1;ratioP1;P2;durP2;ratioP2
9761;SDS011;4920;49.594;11.022;2023-03-22T00:01:40;17.37;;;12.03;;
9761;SDS011;4920;49.594;11.022;2023-03-22T00:04:09;14.60;;;11.50;;
9761;SDS011;4920;49.594;11.022;2023-03-22T00:06:38;17.40;;;11.20;;
9761;SDS011;4920;49.594;11.022;2023-03-22T00:09:07;16.07;;;11.47;;
9761;SDS011;4920;49.594;11.022;2023-03-22T00:11:36;17.13;;;11.93;;
9761;SDS011;4920;49.594;11.022;2023-03-22T00:14:04;13.90;;;11.07;;
9761;SDS011;4920;49.594;11.022;2023-03-22T00:16:33;16.07;;;11.63;;
9761;SDS011;4920;49.594;11.022;2023-03-22T00:19:03;14.70;;;10.73;;
9761;SDS011;4920;49.594;11.022;2023-03-22T00:21:32;14.37;;;10.93;;
9761;SDS011;4920;49.594;11.022;2023-03-22T00:24:01;14.33;;;10.73;;
9761;SDS011;4920;49.594;11.022;2023-03-22T00:26:29;15.20;;;11.17;;
9761;SDS011;4920;49.594;11.022;2023-03-22T00:28:58;19.43;;;11.73;;
9761;SDS011;4920;49.594;11.022;2023-03-22T00:31:27;15.00;;;10.80;;
9761;SDS011;4920;49.594;11.022;2023-03-22T00:33:56;13.83;;;11.50;;
9761;SDS011;4920;49.594;11.022;2023-03-22T00:36:26;14.23;;;11.07;;
9761;SDS011;4920;49.594;11.022;2023-03-22T00:38:55;15.30;;;11.70;;
9761;SDS011;4920;49.594;11.022;2023-03-22T00:41:24;17.13;;;11.73;;
9761;SDS011;4920;49.594;11.022;2023-03-22T00:43:53;15.23;;;11.57;;
9761;SDS011;4920;49.594;11.022;2023-03-22T00:46:21;17.23;;;12.30;;
9761;SDS011;4920;49.594;11.022;2023-03-22T00:48:51;14.90;;;12.30;;
9761;SDS011;4920;49.594;11.022;2023-03-22T00:51:20;17.53;;;12.67;;
9761;SDS011;4920;49.594;11.022;2023-03-22T00:53:51;18.17;;;13.23;;
9761;SDS011;4920;49.594;11.022;2023-03-22T00:56:20;16.80;;;13.27;;
9761;SDS011;4920;49.594;11.022;2023-03-22T00:58:59;18.57;;;14.10;;
9761;SDS011;4920;49.594;11.022;2023-03-22T01:01:28;18.37;;;12.60;;
9761;SDS011;4920;49.594;11.022;2023-03-22T01:03:58;19.93;;;14.60;;
9761;SDS011;4920;49.594;11.022;2023-03-22T01:06:27;22.67;;;14.13;;
9761;SDS011;4920;49.594;11.022;2023-03-22T01:08:57;21.07;;;14.70;;
9761;SDS011;4920;49.594;11.022;2023-03-22T01:11:26;20.07;;;14.60;;
9761;SDS011;4920;49.594;11.022;2023-03-22T01:13:55;20.73;;;14.10;;
9761;SDS011;4920;49.594;11.022;2023-03-22T01:16:25;18.53;;;13.27;;
9761;SDS011;4920;49.594;11.022;2023-03-22T01:18:54;20.00;;;14.33;;
9761;SDS011;4920;49.594;11.022;2023-03-22T01:21:23;23.50;;;15.10;;
9761;SDS011;4920;49.594;11.022;2023-03-22T01:23:52;22.57;;;14.93;;
9761;SDS011;4920;49.594;11.022;2023-03-22T01:26:22;21.07;;;14.37;;
9761;SDS011;4920;49.594;11.022;2023-03-22T01:28:51;24.47;;;15.07;;
9761;SDS011;4920;49.594;11.022;2023-03-22T01:31:20;19.80;;;14.17;;
9761;SDS011;4920;49.594;11.022;2023-03-22T01:33:48;19.63;;;14.57;;
9761;SDS011;4920;49.594;11.022;2023-03-22T01:36:20;21.60;;;14.57;;
9761;SDS011;4920;49.594;11.022;2023-03-22T01:38:49;26.37;;;16.83;;
9761;SDS011;4920;49.594;11.022;2023-03-22T01:41:19;23.47;;;15.93;;
9761;SDS011;4920;49.594;11.022;2023-03-22T01:46:39;22.57;;;14.90;;
9761;SDS011;4920;49.594;11.022;2023-03-22T01:49:09;21.00;;;14.27;;
9761;SDS011;4920;49.594;11.022;2023-03-22T01:51:42;22.03;;;14.43;;
9761;SDS011;4920;49.594;11.022;2023-03-22T01:54:21;20.43;;;14.20;;
9761;SDS011;4920;49.594;11.022;2023-03-22T01:56:58;20.23;;;14.10;;
9761;SDS011;4920;49.594;11.022;2023-03-22T01:59:37;21.67;;;14.13;;
9761;SDS011;4920;49.594;11.022;2023-03-22T02:02:25;18.87;;;13.47;;
9761;SDS011;4920;49.594;11.022;2023-03-22T02:05:07;22.50;;;13.80;;
9761;SDS011;4920;49.594;11.022;2023-03-22T02:07:38;16.67;;;13.13;;
9761;SDS011;4920;49.594;11.022;2023-03-22T02:10:09;20.17;;;14.33;;
9761;SDS011;4920;49.594;11.022;2023-03-22T02:12:51;22.37;;;13.60;;
9761;SDS011;4920;49.594;11.022;2023-03-22T02:15:48;19.90;;;13.57;;
9761;SDS011;4920;49.594;11.022;2023-03-22T02:18:47;19.73;;;13.77;;
9761;SDS011;4920;49.594;11.022;2023-03-22T02:21:36;24.30;;;15.37;;
9761;SDS011;4920;49.594;11.022;2023-03-22T02:27:33;20.00;;;14.77;;
9761;SDS011;4920;49.594;11.022;2023-03-22T02:30:20;22.10;;;15.13;;
9761;SDS011;4920;49.594;11.022;2023-03-22T02:33:17;21.37;;;14.13;;
9761;SDS011;4920;49.594;11.022;2023-03-22T02:36:27;19.20;;;14.27;;
9761;SDS011;4920;49.594;11.022;2023-03-22T02:39:14;19.87;;;14.17;;
9761;SDS011;4920;49.594;11.022;2023-03-22T02:42:00;21.03;;;15.00;;
9761;SDS011;4920;49.594;11.022;2023-03-22T02:44:54;20.00;;;15.50;;
9761;SDS011;4920;49.594;11.022;2023-03-22T02:47:30;21.10;;;15.50;;
9761;SDS011;4920;49.594;11.022;2023-03-22T02:50:07;22.73;;;14.70;;
9761;SDS011;4920;49.594;11.022;2023-03-22T02:52:41;24.67;;;15.67;;
9761;SDS011;4920;49.594;11.022;2023-03-22T02:55:17;24.90;;;16.37;;
9761;SDS011;4920;49.594;11.022;2023-03-22T02:57:51;23.57;;;16.43;;
9761;SDS011;4920;49.594;11.022;2023-03-22T03:00:24;23.93;;;15.90;;
9761;SDS011;4920;49.594;11.022;2023-03-22T03:02:56;22.37;;;15.37;;
9761;SDS011;4920;49.594;11.022;2023-03-22T03:05:37;20.57;;;14.77;;
9761;SDS011;4920;49.594;11.022;2023-03-22T03:08:09;21.37;;;15.00;;
9761;SDS011;4920;49.594;11.022;2023-03-22T03:10:41;22.93;;;14.87;;
9761;SDS011;4920;49.594;11.022;2023-03-22T03:13:12;22.20;;;15.60;;
9761;SDS011;4920;49.594;11.022;2023-03-22T03:15:43;25.10;;;16.00;;
9761;SDS011;4920;49.594;11.022;2023-03-22T03:18:23;23.37;;;15.17;;
9761;SDS011;4920;49.594;11.022;2023-03-22T03:21:03;21.67;;;14.93;;
9761;SDS011;4920;49.594;11.022;2023-03-22T03:23:46;22.10;;;16.27;;
9761;SDS011;4920;49.594;11.022;2023-03-22T03:26:27;25.80;;;16.73;;
9761;SDS011;4920;49.594;11.022;2023-03-22T03:29:02;30.37;;;16.13;;
9761;SDS011;4920;49.594;11.022;2023-03-22T03:31:38;21.60;;;15.17;;
9761;SDS011;4920;49.594;11.022;2023-03-22T03:34:12;22.87;;;15.97;;
9761;SDS011;4920;49.594;11.022;2023-03-22T03:36:47;27.60;;;16.17;;
9761;SDS011;4920;49.594;11.022;2023-03-22T03:39:20;29.90;;;18.57;;
9761;SDS011;4920;49.594;11.022;2023-03-22T03:41:54;26.30;;;17.37;;
9761;SDS011;4920;49.594;11.022;2023-03-22T03:44:25;24.80;;;16.27;;
9761;SDS011;4920;49.594;11.022;2023-03-22T03:46:54;26.37;;;16.90;;
9761;SDS011;4920;49.594;11.022;2023-03-22T03:49:24;20.40;;;15.03;;
9761;SDS011;4920;49.594;11.022;2023-03-22T03:51:53;27.63;;;18.03;;
9761;SDS011;4920;49.594;11.022;2023-03-22T03:54:23;23.30;;;16.13;;
9761;SDS011;4920;49.594;11.022;2023-03-22T03:56:53;29.27;;;18.07;;
9761;SDS011;4920;49.594;11.022;2023-03-22T03:59:22;27.40;;;18.10;;
9761;SDS011;4920;49.594;11.022;2023-03-22T04:01:52;29.27;;;17.70;;
9761;SDS011;4920;49.594;11.022;2023-03-22T04:04:27;24.47;;;17.00;;
9761;SDS011;4920;49.594;11.022;2023-03-22T04:07:01;23.23;;;16.23;;
9761;SDS011;4920;49.594;11.022;2023-03-22T04:09:35;20.93;;;15.27;;
9761;SDS011;4920;49.594;11.022;2023-03-22T04:12:16;24.47;;;17.53;;
9761;SDS011;4920;49.594;11.022;2023-03-22T04:15:05;24.47;;;17.50;;
9761;SDS011;4920;49.594;11.022;2023-03-22T04:17:34;20.97;;;15.13;;
9761;SDS011;4920;49.594;11.022;2023-03-22T04:20:04;20.63;;;14.40;;
9761;SDS011;4920;49.594;11.022;2023-03-22T04:22:36;20.30;;;14.33;;
9761;SDS011;4920;49.594;11.022;2023-03-22T04:25:06;19.00;;;13.47;;
9761;SDS011;4920;49.594;11.022;2023-03-22T04:27:44;20.93;;;14.40;;
9761;SDS011;4920;49.594;11.022;2023-03-22T04:30:18;23.93;;;15.37;;
9761;SDS011;4920;49.594;11.022;2023-03-22T04:33:11;22.43;;;16.00;;
9761;SDS011;4920;49.594;11.022;2023-03-22T04:35:59;22.37;;;15.03;;
9761;SDS011;4920;49.594;11.022;2023-03-22T04:41:37;23.60;;;16.33;;
9761;SDS011;4920;49.594;11.022;2023-03-22T04:44:07;24.47;;;16.40;;
9761;SDS011;4920;49.594;11.022;2023-03-22T04:46:41;24.43;;;16.50;;
9761;SDS011;4920;49.594;11.022;2023-03-22T04:49:10;24.10;;;16.73;;
9761;SDS011;4920;49.594;11.022;2023-03-22T04:51:40;25.93;;;16.50;;
9761;SDS011;4920;49.594;11.022;2023-03-22T04:54:25;25.30;;;16.57;;
9761;SDS011;4920;49.594;11.022;2023-03-22T04:56:54;25.90;;;17.33;;
9761;SDS011;4920;49.594;11.022;2023-03-22T04:59:26;25.83;;;17.03;;
9761;SDS011;4920;49.594;11.022;2023-03-22T05:01:57;24.07;;;15.80;;
9761;SDS011;4920;49.594;11.022;2023-03-22T05:04:31;25.97;;;16.93;;
9761;SDS011;4920;49.594;11.022;2023-03-22T05:07:09;21.10;;;15.90;;
9761;SDS011;4920;49.594;11.022;2023-03-22T05:09:46;22.97;;;16.77;;
9761;SDS011;4920;49.594;11.022;2023-03-22T05:12:16;24.43;;;16.53;;
9761;SDS011;4920;49.594;11.022;2023-03-22T05:14:50;22.33;;;16.40;;
9761;SDS011;4920;49.594;11.022;2023-03-22T05:17:22;25.23;;;16.17;;
9761;SDS011;4920;49.594;11.022;2023-03-22T05:19:54;24.10;;;16.40;;
9761;SDS011;4920;49.594;11.022;2023-03-22T05:22:23;26.67;;;16.63;;
9761;SDS011;4920;49.594;11.022;2023-03-22T05:24:53;20.73;;;15.57;;
9761;SDS011;4920;49.594;11.022;2023-03-22T05:27:25;23.80;;;16.13;;
9761;SDS011;4920;49.594;11.022;2023-03-22T05:33:26;22.53;;;15.30;;
9761;SDS011;4920;49.594;11.022;2023-03-22T05:35:56;21.50;;;14.93;;
9761;SDS011;4920;49.594;11.022;2023-03-22T05:38:28;21.67;;;14.80;;
9761;SDS011;4920;49.594;11.022;2023-03-22T05:40:59;22.67;;;15.23;;
9761;SDS011;4920;49.594;11.022;2023-03-22T05:43:30;23.03;;;16.13;;
9761;SDS011;4920;49.594;11.022;2023-03-22T05:46:01;22.63;;;14.97;;
9761;SDS011;4920;49.594;11.022;2023-03-22T05:48:38;20.97;;;14.60;;
9761;SDS011;4920;49.594;11.022;2023-03-22T05:51:09;20.77;;;14.20;;
9761;SDS011;4920;49.594;11.022;2023-03-22T05:53:45;18.97;;;14.27;;
9761;SDS011;4920;49.594;11.022;2023-03-22T05:56:22;21.47;;;14.03;;
9761;SDS011;4920;49.594;11.022;2023-03-22T05:58:59;19.27;;;14.47;;
9761;SDS011;4920;49.594;11.022;2023-03-22T06:01:31;20.80;;;13.83;;
9761;SDS011;4920;49.594;11.022;2023-03-22T06:04:21;19.30;;;13.47;;
9761;SDS011;4920;49.594;11.022;2023-03-22T06:07:00;17.40;;;13.17;;
9761;SDS011;4920;49.594;11.022;2023-03-22T06:12:35;20.10;;;13.43;;
9761;SDS011;4920;49.594;11.022;2023-03-22T06:18:16;16.03;;;12.30;;
9761;SDS011;4920;49.594;11.022;2023-03-22T06:20:54;15.37;;;11.57;;
9761;SDS011;4920;49.594;11.022;2023-03-22T06:23:23;15.50;;;12.10;;
9761;SDS011;4920;49.594;11.022;2023-03-22T06:25:52;16.70;;;11.93;;
9761;SDS011;4920;49.594;11.022;2023-03-22T06:28:21;14.67;;;11.37;;
9761;SDS011;4920;49.594;11.022;2023-03-22T06:30:55;14.50;;;11.63;;
9761;SDS011;4920;49.594;11.022;2023-03-22T06:33:26;13.60;;;11.03;;
9761;SDS011;4920;49.594;11.022;2023-03-22T06:36:01;16.50;;;11.10;;
9761;SDS011;4920;49.594;11.022;2023-03-22T06:38:48;14.97;;;11.40;;
9761;SDS011;4920;49.594;11.022;2023-03-22T06:41:17;19.27;;;11.87;;
9761;SDS011;4920;49.594;11.022;2023-03-22T06:43:48;15.47;;;11.10;;
9761;SDS011;4920;49.594;11.022;2023-03-22T06:46:46;15.07;;;11.00;;
9761;SDS011;4920;49.594;11.022;2023-03-22T06:49:27;17.23;;;11.50;;
9761;SDS011;4920;49.594;11.022;2023-03-22T06:51:58;15.70;;;11.03;;
9761;SDS011;4920;49.594;11.022;2023-03-22T06:54:27;14.70;;;10.90;;
9761;SDS011;4920;49.594;11.022;2023-03-22T06:56:56;13.00;;;10.77;;
9761;SDS011;4920;49.594;11.022;2023-03-22T06:59:25;19.93;;;11.10;;
9761;SDS011;4920;49.594;11.022;2023-03-22T07:01:54;13.33;;;9.90;;
9761;SDS011;4920;49.594;11.022;2023-03-22T07:04:23;15.20;;;10.27;;
9761;SDS011;4920;49.594;11.022;2023-03-22T07:12:48;12.13;;;9.40;;
9761;SDS011;4920;49.594;11.022;2023-03-22T07:15:18;13.00;;;9.27;;
9761;SDS011;4920;49.594;11.022;2023-03-22T07:18:01;13.07;;;8.70;;
9761;SDS011;4920;49.594;11.022;2023-03-22T07:20:32;12.20;;;9.30;;
9761;SDS011;4920;49.594;11.022;2023-03-22T07:23:05;11.20;;;8.30;;
9761;SDS011;4920;49.594;11.022;2023-03-22T07:25:43;10.57;;;8.73;;
9761;SDS011;4920;49.594;11.022;2023-03-22T07:28:26;13.07;;;8.70;;
9761;SDS011;4920;49.594;11.022;2023-03-22T07:31:03;10.70;;;8.00;;
9761;SDS011;4920;49.594;11.022;2023-03-22T07:33:45;10.90;;;8.50;;
9761;SDS011;4920;49.594;11.022;2023-03-22T07:36:26;12.70;;;8.47;;
9761;SDS011;4920;49.594;11.022;2023-03-22T07:38:57;13.90;;;8.40;;
9761;SDS011;4920;49.594;11.022;2023-03-22T07:41:30;11.63;;;7.93;;
9761;SDS011;4920;49.594;11.022;2023-03-22T07:44:28;8.43;;;7.37;;
9761;SDS011;4920;49.594;11.022;2023-03-22T07:47:17;10.87;;;7.70;;
9761;SDS011;4920;49.594;11.022;2023-03-22T07:53:25;11.33;;;7.60;;
9761;SDS011;4920;49.594;11.022;2023-03-22T07:55:55;10.53;;;7.53;;
9761;SDS011;4920;49.594;11.022;2023-03-22T07:58:24;16.60;;;7.77;;
9761;SDS011;4920;49.594;11.022;2023-03-22T08:00:55;9.97;;;7.60;;
9761;SDS011;4920;49.594;11.022;2023-03-22T08:03:47;9.87;;;7.67;;
9761;SDS011;4920;49.594;11.022;2023-03-22T08:06:44;12.17;;;7.87;;
9761;SDS011;4920;49.594;11.022;2023-03-22T08:09:13;8.50;;;7.60;;
9761;SDS011;4920;49.594;11.022;2023-03-22T08:11:45;12.53;;;7.83;;
9761;SDS011;4920;49.594;11.022;2023-03-22T08:14:14;11.90;;;7.60;;
9761;SDS011;4920;49.594;11.022;2023-03-22T08:16:53;13.20;;;7.23;;
9761;SDS011;4920;49.594;11.022;2023-03-22T08:19:22;12.13;;;7.30;;
9761;SDS011;4920;49.594;11.022;2023-03-22T08:21:51;9.00;;;6.53;;
9761;SDS011;4920;49.594;11.022;2023-03-22T08:24:39;16.50;;;6.93;;
9761;SDS011;4920;49.594;11.022;2023-03-22T08:27:16;12.67;;;7.70;;
9761;SDS011;4920;49.594;11.022;2023-03-22T08:29:48;11.57;;;6.73;;
9761;SDS011;4920;49.594;11.022;2023-03-22T08:32:17;12.90;;;7.53;;
9761;SDS011;4920;49.594;11.022;2023-03-22T08:34:46;9.63;;;6.70;;
9761;SDS011;4920;49.594;11.022;2023-03-22T08:37:15;9.33;;;6.80;;
9761;SDS011;4920;49.594;11.022;2023-03-22T08:39:46;7.20;;;6.00;;
9761;SDS011;4920;49.594;11.022;2023-03-22T08:42:38;10.30;;;6.67;;
9761;SDS011;4920;49.594;11.022;2023-03-22T08:45:07;9.63;;;6.47;;
9761;SDS011;4920;49.594;11.022;2023-03-22T08:47:45;11.40;;;6.45;;
9761;SDS011;4920;49.594;11.022;2023-03-22T08:50:14;11.77;;;6.45;;
9761;SDS011;4920;49.594;11.022;2023-03-22T08:52:54;9.40;;;6.63;;
9761;SDS011;4920;49.594;11.022;2023-03-22T08:55:26;7.40;;;5.82;;
9761;SDS011;4920;49.594;11.022;2023-03-22T08:58:08;12.85;;;6.10;;
9761;SDS011;4920;49.594;11.022;2023-03-22T09:00:44;6.93;;;4.82;;
9761;SDS011;4920;49.594;11.022;2023-03-22T09:03:22;6.20;;;4.80;;
9761;SDS011;4920;49.594;11.022;2023-03-22T09:05:51;7.15;;;4.70;;
9761;SDS011;4920;49.594;11.022;2023-03-22T09:08:20;10.30;;;4.82;;
9761;SDS011;4920;49.594;11.022;2023-03-22T09:10:55;7.15;;;4.28;;
9761;SDS011;4920;49.594;11.022;2023-03-22T09:13:26;7.15;;;4.60;;
9761;SDS011;4920;49.594;11.022;2023-03-22T09:15:59;9.65;;;4.78;;
9761;SDS011;4920;49.594;11.022;2023-03-22T09:18:31;9.32;;;4.68;;
9761;SDS011;4920;49.594;11.022;2023-03-22T09:21:03;9.38;;;4.20;;
9761;SDS011;4920;49.594;11.022;2023-03-22T09:23:39;4.57;;;3.50;;
9761;SDS011;4920;49.594;11.022;2023-03-22T09:26:14;4.82;;;3.22;;
9761;SDS011;4920;49.594;11.022;2023-03-22T09:28:48;6.10;;;3.53;;
9761;SDS011;4920;49.594;11.022;2023-03-22T09:31:18;5.35;;;3.20;;
9761;SDS011;4920;49.594;11.022;2023-03-22T09:33:56;8.95;;;5.25;;
9761;SDS011;4920;49.594;11.022;2023-03-22T09:36:24;4.78;;;3.42;;
9761;SDS011;4920;49.594;11.022;2023-03-22T09:38:53;6.03;;;2.92;;
9761;SDS011;4920;49.594;11.022;2023-03-22T09:41:24;6.40;;;2.72;;
9761;SDS011;4920;49.594;11.022;2023-03-22T09:44:04;4.35;;;2.72;;
9761;SDS011;4920;49.594;11.022;2023-03-22T09:46:36;3.42;;;2.47;;
9761;SDS011;4920;49.594;11.022;2023-03-22T09:49:11;3.92;;;2.20;;
9761;SDS011;4920;49.594;11.022;2023-03-22T09:51:44;3.22;;;2.08;;
9761;SDS011;4920;49.594;11.022;2023-03-22T09:54:16;4.68;;;2.47;;
9761;SDS011;4920;49.594;11.022;2023-03-22T09:56:48;3.63;;;2.30;;
9761;SDS011;4920;49.594;11.022;2023-03-22T09:59:23;3.22;;;1.95;;
9761;SDS011;4920;49.594;11.022;2023-03-22T10:01:59;3.90;;;2.30;;
9761;SDS011;4920;49.594;11.022;2023-03-22T10:04:39;3.97;;;2.22;;
9761;SDS011;4920;49.594;11.022;2023-03-22T10:07:17;3.70;;;2.00;;
9761;SDS011;4920;49.594;11.022;2023-03-22T10:09:57;3.90;;;2.30;;
9761;SDS011;4920;49.594;11.022;2023-03-22T10:12:34;5.03;;;2.20;;
9761;SDS011;4920;49.594;11.022;2023-03-22T10:15:10;5.95;;;2.22;;
9761;SDS011;4920;49.594;11.022;2023-03-22T10:17:42;6.30;;;2.00;;
9761;SDS011;4920;49.594;11.022;2023-03-22T10:20:20;3.40;;;1.90;;
9761;SDS011;4920;49.594;11.022;2023-03-22T10:22:56;3.53;;;1.80;;
9761;SDS011;4920;49.594;11.022;2023-03-22T10:25:30;2.97;;;1.98;;
9761;SDS011;4920;49.594;11.022;2023-03-22T10:28:05;2.63;;;1.90;;
9761;SDS011;4920;49.594;11.022;2023-03-22T10:30:43;3.08;;;2.00;;
9761;SDS011;4920;49.594;11.022;2023-03-22T10:33:21;6.45;;;2.35;;
9761;SDS011;4920;49.594;11.022;2023-03-22T10:35:55;3.13;;;1.90;;
9761;SDS011;4920;49.594;11.022;2023-03-22T10:38:25;3.33;;;1.95;;
9761;SDS011;4920;49.594;11.022;2023-03-22T10:40:56;2.40;;;1.70;;
9761;SDS011;4920;49.594;11.022;2023-03-22T10:46:58;5.28;;;1.98;;
9761;SDS011;4920;49.594;11.022;2023-03-22T10:49:35;3.17;;;1.90;;
9761;SDS011;4920;49.594;11.022;2023-03-22T10:52:10;3.70;;;1.70;;
9761;SDS011;4920;49.594;11.022;2023-03-22T10:54:47;4.80;;;1.80;;
9761;SDS011;4920;49.594;11.022;2023-03-22T10:57:16;5.15;;;1.80;;
9761;SDS011;4920;49.594;11.022;2023-03-22T10:59:46;4.15;;;1.70;;
9761;SDS011;4920;49.594;11.022;2023-03-22T11:02:18;3.22;;;1.40;;
9761;SDS011;4920;49.594;11.022;2023-03-22T11:04:49;3.20;;;1.48;;
9761;SDS011;4920;49.594;11.022;2023-03-22T11:07:27;2.40;;;1.52;;
9761;SDS011;4920;49.594;11.022;2023-03-22T11:10:10;3.15;;;1.50;;
9761;SDS011;4920;49.594;11.022;2023-03-22T11:12:54;2.03;;;1.50;;
9761;SDS011;4920;49.594;11.022;2023-03-22T11:15:38;2.38;;;1.60;;
9761;SDS011;4920;49.594;11.022;2023-03-22T11:18:12;4.22;;;1.70;;
9761;SDS011;4920;49.594;11.022;2023-03-22T11:20:51;3.40;;;1.60;;
9761;SDS011;4920;49.594;11.022;2023-03-22T11:23:23;2.40;;;1.60;;
9761;SDS011;4920;49.594;11.022;2023-03-22T11:25:54;3.83;;;1.60;;
9761;SDS011;4920;49.594;11.022;2023-03-22T11:28:27;1.65;;;1.20;;
9761;SDS011;4920;49.594;11.022;2023-03-22T11:31:02;2.78;;;1.42;;
9761;SDS011;4920;49.594;11.022;2023-03-22T11:33:34;2.83;;;1.40;;
9761;SDS011;4920;49.594;11.022;2023-03-22T11:36:04;3.22;;;1.60;;
9761;SDS011;4920;49.594;11.022;2023-03-22T11:38:44;4.10;;;1.40;;
9761;SDS011;4920;49.594;11.022;2023-03-22T11:41:19;5.20;;;1.40;;
9761;SDS011;4920;49.594;11.022;2023-03-22T11:43:49;2.83;;;1.30;;
9761;SDS011;4920;49.594;11.022;2023-03-22T11:46:21;3.45;;;1.40;;
9761;SDS011;4920;49.594;11.022;2023-03-22T11:48:55;3.90;;;1.35;;
9761;SDS011;4920;49.594;11.022;2023-03-22T11:51:27;2.40;;;1.40;;
9761;SDS011;4920;49.594;11.022;2023-03-22T11:54:01;2.83;;;1.30;;
9761;SDS011;4920;49.594;11.022;2023-03-22T11:56:34;4.75;;;1.30;;
9761;SDS011;4920;49.594;11.022;2023-03-22T11:59:12;3.58;;;1.50;;
9761;SDS011;4920;49.594;11.022;2023-03-22T12:01:43;6.32;;;1.65;;
9761;SDS011;4920;49.594;11.022;2023-03-22T12:04:19;2.45;;;1.40;;
9761;SDS011;4920;49.594;11.022;2023-03-22T12:06:54;6.47;;;1.60;;
9761;SDS011;4920;49.594;11.022;2023-03-22T12:09:30;3.10;;;1.27;;
9761;SDS011;4920;49.594;11.022;2023-03-22T12:12:05;3.05;;;1.42;;
9761;SDS011;4920;49.594;11.022;2023-03-22T12:14:42;2.97;;;1.58;;
9761;SDS011;4920;49.594;11.022;2023-03-22T12:17:16;4.35;;;1.60;;
9761;SDS011;4920;49.594;11.022;2023-03-22T12:19:58;2.85;;;1.42;;
9761;SDS011;4920;49.594;11.022;2023-03-22T12:22:34;2.58;;;1.50;;
9761;SDS011;4920;49.594;11.022;2023-03-22T12:25:10;2.97;;;1.50;;
9761;SDS011;4920;49.594;11.022;2023-03-22T12:27:43;3.28;;;1.50;;
9761;SDS011;4920;49.594;11.022;2023-03-22T12:30:15;2.65;;;1.40;;
9761;SDS011;4920;49.594;11.022;2023-03-22T12:32:47;2.08;;;1.35;;
9761;SDS011;4920;49.594;11.022;2023-03-22T12:35:22;2.35;;;1.30;;
9761;SDS011;4920;49.594;11.022;2023-03-22T12:37:54;2.42;;;1.48;;
9761;SDS011;4920;49.594;11.022;2023-03-22T12:40:26;2.85;;;1.30;;
9761;SDS011;4920;49.594;11.022;2023-03-22T12:43:00;5.68;;;1.50;;
9761;SDS011;4920;49.594;11.022;2023-03-22T12:45:35;3.38;;;1.23;;
9761;SDS011;4920;49.594;11.022;2023-03-22T12:48:09;2.92;;;1.60;;
9761;SDS011;4920;49.594;11.022;2023-03-22T12:50:43;2.35;;;1.65;;
9761;SDS011;4920;49.594;11.022;2023-03-22T12:53:17;3.97;;;1.85;;
9761;SDS011;4920;49.594;11.022;2023-03-22T12:55:47;4.32;;;1.77;;
9761;SDS011;4920;49.594;11.022;2023-03-22T12:58:17;3.65;;;1.50;;
9761;SDS011;4920;49.594;11.022;2023-03-22T13:00:49;4.18;;;1.83;;
9761;SDS011;4920;49.594;11.022;2023-03-22T13:03:22;2.47;;;1.48;;
9761;SDS011;4920;49.594;11.022;2023-03-22T13:06:00;2.85;;;1.70;;
9761;SDS011;4920;49.594;11.022;2023-03-22T13:11:31;2.13;;;1.50;;
9761;SDS011;4920;49.594;11.022;2023-03-22T13:14:00;2.25;;;1.30;;
9761;SDS011;4920;49.594;11.022;2023-03-22T13:16:46;4.35;;;1.50;;
9761;SDS011;4920;49.594;11.022;2023-03-22T13:19:28;2.55;;;1.50;;
9761;SDS011;4920;49.594;11.022;2023-03-22T13:25:10;2.70;;;1.30;;
9761;SDS011;4920;49.594;11.022;2023-03-22T13:27:53;2.78;;;1.15;;
9761;SDS011;4920;49.594;11.022;2023-03-22T13:30:25;3.90;;;1.30;;
9761;SDS011;4920;49.594;11.022;2023-03-22T13:32:58;2.83;;;1.70;;
9761;SDS011;4920;49.594;11.022;2023-03-22T13:35:38;2.17;;;1.40;;
9761;SDS011;4920;49.594;11.022;2023-03-22T13:38:17;5.70;;;1.40;;
9761;SDS011;4920;49.594;11.022;2023-03-22T13:40:51;2.67;;;1.30;;
9761;SDS011;4920;49.594;11.022;2023-03-22T13:43:25;2.58;;;1.33;;
9761;SDS011;4920;49.594;11.022;2023-03-22T13:46:04;2.22;;;1.30;;
9761;SDS011;4920;49.594;11.022;2023-03-22T13:49:16;2.47;;;1.20;;
9761;SDS011;4920;49.594;11.022;2023-03-22T13:52:20;2.53;;;1.42;;
9761;SDS011;4920;49.594;11.022;2023-03-22T13:54:57;3.85;;;1.30;;
9761;SDS011;4920;49.594;11.022;2023-03-22T14:00:32;3.63;;;1.13;;
9761;SDS011;4920;49.594;11.022;2023-03-22T14:03:11;3.15;;;1.13;;
9761;SDS011;4920;49.594;11.022;2023-03-22T14:05:47;2.63;;;1.30;;
9761;SDS011;4920;49.594;11.022;2023-03-22T14:08:22;1.92;;;1.20;;
9761;SDS011;4920;49.594;11.022;2023-03-22T14:10:57;2.30;;;1.40;;
9761;SDS011;4920;49.594;11.022;2023-03-22T14:13:32;1.40;;;1.20;;
9761;SDS011;4920;49.594;11.022;2023-03-22T14:16:06;2.38;;;1.20;;
9761;SDS011;4920;49.594;11.022;2023-03-22T14:18:40;1.77;;;1.10;;
9761;SDS011;4920;49.594;11.022;2023-03-22T14:21:11;1.75;;;1.00;;
9761;SDS011;4920;49.594;11.022;2023-03-22T14:23:44;1.90;;;1.00;;
9761;SDS011;4920;49.594;11.022;2023-03-22T14:26:17;1.73;;;1.00;;
9761;SDS011;4920;49.594;11.022;2023-03-22T14:28:47;2.15;;;1.05;;
9761;SDS011;4920;49.594;11.022;2023-03-22T14:31:19;1.60;;;1.00;;
9761;SDS011;4920;49.594;11.022;2023-03-22T14:33:49;1.98;;;1.00;;
9761;SDS011;4920;49.594;11.022;2023-03-22T14:36:18;2.40;;;1.00;;
9761;SDS011;4920;49.594;11.022;2023-03-22T14:38:47;5.13;;;1.15;;
9761;SDS011;4920;49.594;11.022;2023-03-22T14:41:19;1.85;;;1.10;;
9761;SDS011;4920;49.594;11.022;2023-03-22T14:43:49;2.08;;;1.10;;
9761;SDS011;4920;49.594;11.022;2023-03-22T14:46:24;3.30;;;1.30;;
9761;SDS011;4920;49.594;11.022;2023-03-22T14:48:57;4.57;;;1.05;;
9761;SDS011;4920;49.594;11.022;2023-03-22T14:51:27;1.20;;;0.80;;
9761;SDS011;4920;49.594;11.022;2023-03-22T14:53:57;1.30;;;0.90;;
9761;SDS011;4920;49.594;11.022;2023-03-22T14:56:27;1.58;;;0.90;;
9761;SDS011;4920;49.594;11.022;2023-03-22T14:58:58;1.85;;;1.00;;
9761;SDS011;4920;49.594;11.022;2023-03-22T15:01:29;1.25;;;0.90;;
9761;SDS011;4920;49.594;11.022;2023-03-22T15:04:00;1.70;;;1.00;;
9761;SDS011;4920;49.594;11.022;2023-03-22T15:06:32;1.70;;;1.10;;
9761;SDS011;4920;49.594;11.022;2023-03-22T15:09:08;1.60;;;1.00;;
9761;SDS011;4920;49.594;11.022;2023-03-22T15:11:39;1.58;;;0.90;;
9761;SDS011;4920;49.594;11.022;2023-03-22T15:14:07;3.88;;;1.00;;
9761;SDS011;4920;49.594;11.022;2023-03-22T15:16:35;2.10;;;0.95;;
9761;SDS011;4920;49.594;11.022;2023-03-22T15:19:05;2.60;;;1.00;;
9761;SDS011;4920;49.594;11.022;2023-03-22T15:21:37;3.05;;;1.10;;
9761;SDS011;4920;49.594;11.022;2023-03-22T15:24:13;5.20;;;0.90;;
9761;SDS011;4920;49.594;11.022;2023-03-22T15:27:10;3.38;;;1.00;;
9761;SDS011;4920;49.594;11.022;2023-03-22T15:29:39;1.85;;;0.98;;
9761;SDS011;4920;49.594;11.022;2023-03-22T15:32:09;1.92;;;1.15;;
9761;SDS011;4920;49.594;11.022;2023-03-22T15:34:41;5.13;;;0.90;;
9761;SDS011;4920;49.594;11.022;2023-03-22T15:37:10;2.28;;;1.02;;
9761;SDS011;4920;49.594;11.022;2023-03-22T15:39:42;1.85;;;1.17;;
9761;SDS011;4920;49.594;11.022;2023-03-22T15:42:14;5.45;;;1.30;;
9761;SDS011;4920;49.594;11.022;2023-03-22T15:44:52;3.28;;;1.10;;
9761;SDS011;4920;49.594;11.022;2023-03-22T15:47:23;5.38;;;2.30;;
9761;SDS011;4920;49.594;11.022;2023-03-22T15:49:53;6.60;;;1.30;;
9761;SDS011;4920;49.594;11.022;2023-03-22T15:52:22;1.10;;;1.00;;
9761;SDS011;4920;49.594;11.022;2023-03-22T15:54:59;2.15;;;1.00;;
9761;SDS011;4920;49.594;11.022;2023-03-22T15:57:38;4.22;;;1.33;;
9761;SDS011;4920;49.594;11.022;2023-03-22T16:00:16;3.20;;;1.63;;
9761;SDS011;4920;49.594;11.022;2023-03-22T16:02:51;4.13;;;1.00;;
9761;SDS011;4920;49.594;11.022;2023-03-22T16:05:21;1.55;;;1.00;;
9761;SDS011;4920;49.594;11.022;2023-03-22T16:07:49;2.10;;;1.20;;
9761;SDS011;4920;49.594;11.022;2023-03-22T16:10:18;2.17;;;0.95;;
9761;SDS011;4920;49.594;11.022;2023-03-22T16:12:48;3.28;;;1.20;;